Time;durP1;ratioP1;P1;durP2;ratioP2;P2;SDS_P1;SDS_P2;PMS_P1;PMS_P2;Temp;Humidity;BMP_temperature;BMP_pressure;BME280_temperature;BME280_humidity;BME280_pressure;Samples;Min_cycle;Max_cycle;Signal;HPM_P1;HPM_P2
2023/09/13 00:01:19;;;;;;;6.65;6.03;;;24.10;61.00;;;;;;5014705;28;20199;-86
2023/09/13 00:03:47;;;;;;;6.72;6.13;;;24.10;61.00;;;;;;4997565;28;20217;-86
2023/09/13 00:06:14;;;;;;;8.10;6.03;;;24.00;61.00;;;;;;5013409;28;20204;-86
2023/09/13 00:08:41;;;;;;;6.75;5.85;;;24.20;61.10;;;;;;5014194;28;20572;-86
2023/09/13 00:11:08;;;;;;;7.07;5.95;;;24.10;61.10;;;;;;5013734;28;20300;-86
2023/09/13 00:13:35;;;;;;;6.68;6.07;;;24.10;61.00;;;;;;5014367;28;20196;-86
2023/09/13 00:16:03;;;;;;;7.68;6.07;;;24.10;61.20;;;;;;5013488;28;20223;-86
2023/09/13 00:18:31;;;;;;;6.75;6.03;;;24.10;61.40;;;;;;5013530;28;20196;-86
2023/09/13 00:20:59;;;;;;;6.72;6.15;;;24.10;61.40;;;;;;5013309;28;20595;-86
2023/09/13 00:23:25;;;;;;;6.22;5.63;;;24.10;61.40;;;;;;5014868;28;20212;-86
2023/09/13 00:25:53;;;;;;;7.53;6.13;;;24.10;61.50;;;;;;5013241;28;20200;-86
2023/09/13 00:28:20;;;;;;;6.75;6.15;;;24.10;62.40;;;;;;4997488;28;20597;-86
2023/09/13 00:30:47;;;;;;;6.50;5.90;;;24.10;61.60;;;;;;5014230;28;20228;-86
2023/09/13 00:33:14;;;;;;;6.38;5.63;;;24.00;61.50;;;;;;5013216;28;20201;-85
2023/09/13 00:35:42;;;;;;;6.55;5.95;;;24.00;61.50;;;;;;5013387;28;20275;-85
2023/09/13 00:38:09;;;;;;;7.22;6.15;;;24.10;61.70;;;;;;5013916;28;20529;-85
2023/09/13 00:40:36;;;;;;;6.53;5.82;;;24.10;61.80;;;;;;5013760;28;20232;-84
2023/09/13 00:43:04;;;;;;;8.63;6.60;;;24.00;61.70;;;;;;5013565;28;20212;-84
2023/09/13 00:45:31;;;;;;;6.68;5.97;;;24.00;62.00;;;;;;5013354;28;20200;-84
2023/09/13 00:47:58;;;;;;;6.05;5.55;;;24.00;61.90;;;;;;5013350;28;20659;-84
2023/09/13 00:50:25;;;;;;;6.88;6.22;;;24.00;62.10;;;;;;5013312;28;20279;-84
2023/09/13 00:52:53;;;;;;;6.55;5.95;;;24.00;62.20;;;;;;5013687;28;20207;-84
2023/09/13 00:55:21;;;;;;;7.10;5.97;;;24.10;62.40;;;;;;5013885;28;20200;-84
2023/09/13 00:57:49;;;;;;;6.38;5.80;;;24.00;62.40;;;;;;5014124;28;20567;-84
2023/09/13 01:00:17;;;;;;;6.82;6.03;;;24.00;62.50;;;;;;5014361;28;20339;-84
2023/09/13 01:02:44;;;;;;;6.95;6.35;;;24.00;62.70;;;;;;5016046;28;20270;-84
2023/09/13 01:05:12;;;;;;;6.75;6.15;;;24.00;62.80;;;;;;5013749;28;20565;-84
2023/09/13 01:07:40;;;;;;;8.30;6.57;;;24.00;62.80;;;;;;5013328;28;20200;-84
2023/09/13 01:10:09;;;;;;;6.32;5.70;;;24.00;62.80;;;;;;5013326;28;20259;-84
2023/09/13 01:12:36;;;;;;;7.45;5.68;;;24.00;62.80;;;;;;5014178;28;20227;-84
2023/09/13 01:15:06;;;;;;;7.45;6.65;;;24.00;62.80;;;;;;5023014;28;20231;-84
2023/09/13 01:17:39;;;;;;;7.22;6.25;;;24.00;63.00;;;;;;5013418;28;20292;-84
2023/09/13 01:20:10;;;;;;;7.57;6.18;;;24.00;63.10;;;;;;5014588;28;20220;-84
2023/09/13 01:23:05;;;;;;;6.40;5.80;;;24.00;63.20;;;;;;5013515;28;20329;-84
2023/09/13 01:25:46;;;;;;;7.82;6.25;;;23.90;63.20;;;;;;5013353;28;20251;-84
2023/09/13 01:28:18;;;;;;;6.85;6.13;;;23.90;63.30;;;;;;5013353;28;20193;-84
2023/09/13 01:30:47;;;;;;;6.90;6.20;;;23.90;63.30;;;;;;5013451;28;20279;-84
2023/09/13 01:33:14;;;;;;;6.85;6.15;;;24.00;63.40;;;;;;4997263;28;20188;-84
2023/09/13 01:35:41;;;;;;;6.90;6.20;;;23.90;63.50;;;;;;5012785;28;20197;-84
2023/09/13 01:38:08;;;;;;;7.15;6.45;;;24.00;63.60;;;;;;4998050;28;20212;-84
2023/09/13 01:40:37;;;;;;;7.03;6.28;;;23.90;63.50;;;;;;5012928;28;20233;-84
2023/09/13 01:43:04;;;;;;;7.13;5.90;;;23.90;63.70;;;;;;5013185;28;20224;-84
2023/09/13 01:45:31;;;;;;;6.22;5.63;;;23.90;63.80;;;;;;4997599;28;20235;-84
2023/09/13 01:48:00;;;;;;;6.75;6.05;;;23.90;63.80;;;;;;5013010;28;20197;-84
2023/09/13 01:50:27;;;;;;;6.82;6.10;;;23.90;63.90;;;;;;5013023;28;20223;-84
2023/09/13 01:52:54;;;;;;;6.55;5.95;;;23.90;63.90;;;;;;5013249;28;20224;-84
2023/09/13 01:55:21;;;;;;;7.40;5.78;;;23.80;63.80;;;;;;5013209;28;20208;-84
2023/09/13 01:57:50;;;;;;;6.68;6.05;;;23.80;64.00;;;;;;5013394;28;20201;-84
2023/09/13 02:00:17;;;;;;;6.18;5.57;;;23.80;64.00;;;;;;5013421;28;20683;-84
2023/09/13 02:02:44;;;;;;;6.18;5.57;;;23.90;64.30;;;;;;5012708;28;20208;-84
2023/09/13 02:05:13;;;;;;;6.13;5.60;;;23.80;64.30;;;;;;5013745;28;20195;-84
2023/09/13 02:07:40;;;;;;;6.53;5.93;;;23.80;64.30;;;;;;5016368;28;20203;-84
2023/09/13 02:10:08;;;;;;;6.25;5.65;;;23.90;64.40;;;;;;5016071;28;20255;-84
2023/09/13 02:12:35;;;;;;;6.40;5.80;;;23.80;64.40;;;;;;5016277;28;20203;-84
2023/09/13 02:15:04;;;;;;;6.35;5.75;;;23.80;64.40;;;;;;5016288;28;20291;-84
2023/09/13 02:17:32;;;;;;;7.38;5.70;;;23.80;64.50;;;;;;5015935;28;20194;-84
2023/09/13 02:19:59;;;;;;;6.05;5.47;;;23.80;64.50;;;;;;5016286;28;20220;-84
2023/09/13 02:22:28;;;;;;;6.47;5.75;;;23.80;64.60;;;;;;5015879;28;20259;-84
2023/09/13 02:24:55;;;;;;;6.47;5.68;;;23.80;64.40;;;;;;5016242;28;20204;-84
2023/09/13 02:27:22;;;;;;;6.30;5.70;;;23.80;64.40;;;;;;5016151;28;20235;-84
2023/09/13 02:29:49;;;;;;;6.82;5.30;;;23.80;64.50;;;;;;5016216;28;20220;-84
2023/09/13 02:32:16;;;;;;;6.03;5.45;;;23.80;64.40;;;;;;5015644;28;20207;-84
2023/09/13 02:34:44;;;;;;;7.38;5.40;;;23.80;64.50;;;;;;5015619;28;20204;-84
2023/09/13 02:37:11;;;;;;;5.85;5.35;;;23.80;64.60;;;;;;5015882;28;20644;-84
2023/09/13 02:39:41;;;;;;;5.85;5.18;;;23.80;64.70;;;;;;5015622;28;20217;-84
2023/09/13 02:42:09;;;;;;;5.60;5.13;;;23.80;64.60;;;;;;5015088;28;20197;-84
2023/09/13 02:44:36;;;;;;;5.43;4.90;;;23.80;64.60;;;;;;5015683;28;20274;-84
2023/09/13 02:47:03;;;;;;;5.60;4.95;;;23.70;64.60;;;;;;5015594;28;20196;-84
2023/09/13 02:49:30;;;;;;;5.45;4.95;;;23.70;64.90;;;;;;5016985;28;20223;-84
2023/09/13 02:51:57;;;;;;;6.40;5.80;;;23.70;64.90;;;;;;5016149;28;20247;-84
2023/09/13 02:54:25;;;;;;;5.68;5.18;;;23.70;65.00;;;;;;5000083;28;20205;-84
2023/09/13 02:56:54;;;;;;;5.45;4.97;;;23.70;65.00;;;;;;5015236;28;20566;-82
2023/09/13 02:59:21;;;;;;;5.53;5.03;;;23.70;65.10;;;;;;5015298;28;20251;-84
2023/09/13 03:01:49;;;;;;;5.70;5.00;;;23.70;65.00;;;;;;5015246;28;20197;-84
2023/09/13 03:04:17;;;;;;;5.80;5.30;;;23.70;65.20;;;;;;5015284;28;20225;-84
2023/09/13 03:06:44;;;;;;;5.97;4.70;;;23.70;65.00;;;;;;5014980;28;20619;-83
2023/09/13 03:09:11;;;;;;;6.03;5.22;;;23.70;65.30;;;;;;5015793;28;20556;-84
2023/09/13 03:11:38;;;;;;;5.32;4.90;;;23.60;65.60;;;;;;5015056;28;20223;-84
2023/09/13 03:14:06;;;;;;;5.32;4.93;;;23.70;65.70;;;;;;5014848;28;20243;-84
2023/09/13 03:16:35;;;;;;;5.38;4.90;;;23.70;65.90;;;;;;5015692;28;20215;-84
2023/09/13 03:19:05;;;;;;;5.47;4.97;;;23.70;65.90;;;;;;5015171;28;20220;-84
2023/09/13 03:21:37;;;;;;;5.47;4.97;;;23.70;65.90;;;;;;5016447;28;20681;-84
2023/09/13 03:24:05;;;;;;;5.35;4.85;;;23.70;65.70;;;;;;5014585;28;20220;-84
2023/09/13 03:26:32;;;;;;;6.13;4.88;;;23.80;66.30;;;;;;5015356;28;20196;-84
2023/09/13 03:29:00;;;;;;;5.50;4.63;;;23.80;65.30;;;;;;5015639;28;20327;-84
2023/09/13 03:31:28;;;;;;;4.90;4.40;;;23.80;65.20;;;;;;5015086;28;20219;-84
2023/09/13 03:33:59;;;;;;;5.32;4.70;;;23.80;65.20;;;;;;5015885;28;20188;-84
2023/09/13 03:36:29;;;;;;;5.68;5.07;;;23.80;65.20;;;;;;5014489;28;20207;-84
2023/09/13 03:38:59;;;;;;;5.22;4.72;;;23.90;65.20;;;;;;5014488;28;20211;-84
2023/09/13 03:41:28;;;;;;;4.90;4.50;;;23.80;65.20;;;;;;5014678;28;20552;-84
2023/09/13 03:43:55;;;;;;;5.32;4.15;;;23.90;65.30;;;;;;5014125;28;20759;-84
2023/09/13 03:46:23;;;;;;;5.10;4.70;;;23.90;65.30;;;;;;5014506;28;20193;-84
2023/09/13 03:48:56;;;;;;;5.20;4.43;;;23.90;65.30;;;;;;5014157;28;20709;-84
2023/09/13 03:51:23;;;;;;;5.70;4.60;;;23.90;65.10;;;;;;4997918;28;20667;-84
2023/09/13 03:53:50;;;;;;;4.72;4.32;;;23.90;65.00;;;;;;5014146;28;20694;-84
2023/09/13 03:56:17;;;;;;;5.20;4.32;;;24.00;64.90;;;;;;5013734;28;20622;-84
2023/09/13 03:58:45;;;;;;;5.22;4.25;;;23.90;64.80;;;;;;5013412;28;20204;-84
2023/09/13 04:01:12;;;;;;;4.28;3.83;;;23.90;64.90;;;;;;5013778;28;20196;-84
2023/09/13 04:03:39;;;;;;;4.53;4.20;;;23.90;64.60;;;;;;5013829;28;20323;-84
2023/09/13 04:06:08;;;;;;;4.85;4.45;;;24.00;64.90;;;;;;4997557;28;20291;-84
2023/09/13 04:08:35;;;;;;;4.90;4.25;;;23.90;64.70;;;;;;5014128;28;20329;-84
2023/09/13 04:11:03;;;;;;;4.78;4.28;;;23.90;64.70;;;;;;5014610;28;20216;-84
2023/09/13 04:13:30;;;;;;;4.53;4.13;;;24.00;64.70;;;;;;4997943;28;20574;-84
2023/09/13 04:16:01;;;;;;;4.32;3.92;;;23.90;64.60;;;;;;5013706;28;20204;-84
2023/09/13 04:18:28;;;;;;;4.75;4.20;;;23.90;64.60;;;;;;5014298;28;20225;-84
2023/09/13 04:20:55;;;;;;;5.13;4.63;;;23.90;64.80;;;;;;5013489;28;20220;-84
2023/09/13 04:23:24;;;;;;;5.00;4.50;;;23.90;64.60;;;;;;5013424;28;20216;-84
2023/09/13 04:25:53;;;;;;;4.85;4.30;;;23.90;64.60;;;;;;5013845;28;20307;-84
2023/09/13 04:28:20;;;;;;;4.63;4.25;;;23.90;64.50;;;;;;4996710;28;20702;-84
2023/09/13 04:30:48;;;;;;;4.50;4.07;;;23.90;64.50;;;;;;5013148;28;20636;-84
2023/09/13 04:33:15;;;;;;;5.25;4.07;;;23.90;64.30;;;;;;5013231;28;20189;-83
2023/09/13 04:35:42;;;;;;;4.72;4.32;;;23.90;64.40;;;;;;5013391;28;20295;-84
2023/09/13 04:38:09;;;;;;;4.93;4.43;;;23.90;64.50;;;;;;5013389;28;20196;-85
2023/09/13 04:40:41;;;;;;;4.80;4.25;;;23.90;64.60;;;;;;5013138;28;20684;-85
2023/09/13 04:43:23;;;;;;;4.50;3.90;;;23.90;64.90;;;;;;5012975;28;20248;-85
2023/09/13 04:45:52;;;;;;;4.43;4.00;;;23.90;65.10;;;;;;4997430;28;20200;-85
2023/09/13 04:48:19;;;;;;;6.63;5.07;;;23.80;65.10;;;;;;5013031;28;20207;-85
2023/09/13 04:50:46;;;;;;;6.82;4.97;;;23.80;66.30;;;;;;4997623;28;20239;-85
2023/09/13 04:53:13;;;;;;;5.68;5.18;;;23.70;66.80;;;;;;5013095;28;20300;-85
2023/09/13 04:55:44;;;;;;;5.35;4.85;;;23.50;67.10;;;;;;5012967;28;20608;-85
2023/09/13 04:58:11;;;;;;;7.70;4.97;;;23.30;67.40;;;;;;5012941;28;20239;-85
2023/09/13 05:00:39;;;;;;;6.25;5.68;;;23.20;67.70;;;;;;5013142;28;20312;-85
2023/09/13 05:03:06;;;;;;;6.85;5.55;;;23.10;68.70;;;;;;5013574;28;20555;-85
2023/09/13 05:05:33;;;;;;;5.70;5.10;;;23.00;68.90;;;;;;5012812;28;20200;-85
2023/09/13 05:08:00;;;;;;;5.68;5.10;;;22.90;68.90;;;;;;5013191;28;20205;-85
2023/09/13 05:10:30;;;;;;;5.18;4.55;;;22.90;68.70;;;;;;5012836;28;20232;-85
2023/09/13 05:12:58;;;;;;;6.18;4.53;;;23.00;68.70;;;;;;5012757;28;20259;-85
2023/09/13 05:15:25;;;;;;;5.50;4.78;;;23.00;68.50;;;;;;5013070;28;20201;-84
2023/09/13 05:17:52;;;;;;;4.90;4.50;;;23.10;68.60;;;;;;4997086;28;20196;-85
2023/09/13 05:20:19;;;;;;;4.95;4.45;;;23.10;68.10;;;;;;5013170;28;20687;-85
2023/09/13 05:22:47;;;;;;;5.97;4.55;;;23.20;67.60;;;;;;5013263;28;20200;-85
2023/09/13 05:25:14;;;;;;;5.10;4.70;;;23.20;67.20;;;;;;5014655;28;20216;-86
2023/09/13 05:27:41;;;;;;;4.50;4.10;;;23.20;67.10;;;;;;4997388;28;20201;-85
2023/09/13 05:30:11;;;;;;;4.65;4.25;;;23.30;67.10;;;;;;5013462;28;20221;-85
2023/09/13 05:32:38;;;;;;;4.57;4.18;;;23.30;66.90;;;;;;5013209;28;20264;-85
2023/09/13 05:35:06;;;;;;;4.50;4.10;;;23.40;66.80;;;;;;5013017;28;20288;-85
2023/09/13 05:37:33;;;;;;;4.63;4.25;;;23.40;66.70;;;;;;5013163;28;20201;-85
2023/09/13 05:40:06;;;;;;;4.70;4.30;;;23.40;66.50;;;;;;5013243;28;20303;-85
2023/09/13 05:42:33;;;;;;;4.70;4.30;;;23.40;66.40;;;;;;5017673;28;20197;-84
2023/09/13 05:45:01;;;;;;;4.70;4.30;;;23.50;66.50;;;;;;5016601;28;20243;-83
2023/09/13 05:47:29;;;;;;;4.50;4.10;;;23.40;66.30;;;;;;5016596;28;20706;-83
2023/09/13 05:49:57;;;;;;;4.75;4.35;;;23.50;66.40;;;;;;5016443;28;20236;-83
2023/09/13 05:52:23;;;;;;;4.40;4.05;;;23.50;66.40;;;;;;5016590;28;20237;-83
2023/09/13 05:54:51;;;;;;;4.55;4.15;;;23.50;66.30;;;;;;5016507;28;20193;-83
2023/09/13 05:57:18;;;;;;;4.28;3.97;;;23.50;66.10;;;;;;5016042;28;20259;-83
2023/09/13 05:59:45;;;;;;;4.32;4.03;;;23.50;66.10;;;;;;5015824;28;20293;-83
2023/09/13 06:02:12;;;;;;;4.38;3.97;;;23.50;66.10;;;;;;5015954;28;20283;-83
2023/09/13 06:04:41;;;;;;;4.88;4.43;;;23.50;66.40;;;;;;5016306;28;20225;-83
2023/09/13 06:07:09;;;;;;;4.88;4.28;;;23.50;66.60;;;;;;5015780;28;20299;-83
2023/09/13 06:09:36;;;;;;;4.25;3.95;;;23.50;66.70;;;;;;5015929;28;20225;-83
2023/09/13 06:12:04;;;;;;;4.70;4.30;;;23.50;66.70;;;;;;5015577;28;20193;-83
2023/09/13 06:14:31;;;;;;;4.85;3.80;;;23.60;66.80;;;;;;5016329;28;20250;-83
2023/09/13 06:16:59;;;;;;;4.55;4.15;;;23.60;66.50;;;;;;5016333;28;20211;-83
2023/09/13 06:19:25;;;;;;;4.72;4.03;;;23.60;66.50;;;;;;5016233;28;20219;-83
2023/09/13 06:21:55;;;;;;;5.07;4.15;;;23.60;66.40;;;;;;5015678;28;20228;-83
2023/09/13 06:24:21;;;;;;;5.30;4.30;;;23.60;66.50;;;;;;5015477;28;20720;-83
2023/09/13 06:26:49;;;;;;;6.05;4.35;;;23.70;66.50;;;;;;5015751;28;20201;-83
2023/09/13 06:29:16;;;;;;;4.55;4.18;;;23.70;66.40;;;;;;5016415;28;20220;-83
2023/09/13 06:31:43;;;;;;;4.82;4.43;;;23.60;66.30;;;;;;5015554;28;20300;-83
2023/09/13 06:34:10;;;;;;;4.90;4.07;;;23.70;66.40;;;;;;5015525;28;20193;-83
2023/09/13 06:36:37;;;;;;;4.47;3.97;;;23.70;66.40;;;;;;5015821;28;20201;-83
2023/09/13 06:39:06;;;;;;;4.45;4.05;;;23.70;66.30;;;;;;5016048;28;20248;-83
2023/09/13 06:41:33;;;;;;;4.40;4.00;;;23.70;66.40;;;;;;5015864;28;20208;-83
2023/09/13 06:44:00;;;;;;;4.50;4.10;;;23.70;66.30;;;;;;5015818;28;20212;-83
2023/09/13 06:46:28;;;;;;;4.38;3.90;;;23.70;67.00;;;;;;5016829;28;20208;-83
2023/09/13 06:48:55;;;;;;;5.18;3.97;;;23.70;66.20;;;;;;5016239;28;20606;-83
2023/09/13 06:51:22;;;;;;;4.20;3.80;;;23.70;66.30;;;;;;5015515;28;20259;-83
2023/09/13 06:53:50;;;;;;;4.20;3.85;;;23.70;67.20;;;;;;5015385;28;20609;-83
2023/09/13 06:56:18;;;;;;;4.13;3.70;;;23.70;66.40;;;;;;4998891;28;20200;-83
2023/09/13 06:58:46;;;;;;;4.43;4.03;;;23.70;66.30;;;;;;5014920;28;20201;-84
2023/09/13 07:01:13;;;;;;;4.80;4.30;;;23.70;66.30;;;;;;5015876;28;20570;-84
2023/09/13 07:03:40;;;;;;;4.45;3.75;;;23.70;66.30;;;;;;5016609;28;20223;-84
2023/09/13 07:06:07;;;;;;;3.90;3.60;;;23.80;66.10;;;;;;5015075;28;20200;-84
2023/09/13 07:08:34;;;;;;;3.90;3.50;;;23.80;65.80;;;;;;5015267;28;20247;-84
2023/09/13 07:11:02;;;;;;;4.47;3.60;;;23.90;65.80;;;;;;4998387;28;20225;-83
2023/09/13 07:13:30;;;;;;;4.57;4.18;;;23.90;65.80;;;;;;5014816;28;20549;-83
2023/09/13 07:15:57;;;;;;;4.15;3.28;;;24.00;65.60;;;;;;5014668;28;20246;-83
2023/09/13 07:18:24;;;;;;;3.75;3.40;;;24.00;65.40;;;;;;5014802;28;20204;-83
2023/09/13 07:20:51;;;;;;;4.03;3.72;;;24.10;65.40;;;;;;5014728;28;20224;-83
2023/09/13 07:23:18;;;;;;;3.55;3.25;;;24.10;65.20;;;;;;4999467;28;20200;-83
2023/09/13 07:25:49;;;;;;;4.38;3.30;;;24.20;65.20;;;;;;5014577;28;20587;-83
2023/09/13 07:28:16;;;;;;;4.07;3.78;;;24.20;65.20;;;;;;5014599;28;20223;-83
2023/09/13 07:30:45;;;;;;;3.78;3.47;;;24.20;65.20;;;;;;5015935;28;20311;-83
2023/09/13 07:33:12;;;;;;;3.85;3.45;;;24.20;65.10;;;;;;5015177;28;20200;-83
2023/09/13 07:35:39;;;;;;;3.85;3.50;;;24.20;65.00;;;;;;5014809;28;20192;-83
2023/09/13 07:38:06;;;;;;;5.03;3.50;;;24.20;64.90;;;;;;5014567;28;20543;-83
2023/09/13 07:40:33;;;;;;;3.47;3.17;;;24.20;64.90;;;;;;5014169;28;20216;-83
2023/09/13 07:43:01;;;;;;;3.75;3.35;;;24.20;65.00;;;;;;4998134;28;20240;-83
2023/09/13 07:45:31;;;;;;;4.07;3.72;;;24.30;65.00;;;;;;4981704;28;20596;-83
2023/09/13 07:48:02;;;;;;;3.97;3.67;;;24.30;64.90;;;;;;5014074;28;20540;-83
2023/09/13 07:50:30;;;;;;;3.80;3.38;;;24.30;65.00;;;;;;5013881;28;20227;-83
2023/09/13 07:52:56;;;;;;;3.35;3.08;;;24.30;65.00;;;;;;5014381;28;20200;-83
2023/09/13 07:55:24;;;;;;;3.55;3.25;;;24.30;65.00;;;;;;5015121;28;20185;-83
2023/09/13 07:57:51;;;;;;;3.63;3.33;;;24.30;64.90;;;;;;5013884;28;20212;-83
2023/09/13 08:00:18;;;;;;;3.40;3.10;;;24.30;64.90;;;;;;5013621;28;20357;-83
2023/09/13 08:02:46;;;;;;;3.45;3.20;;;24.30;64.80;;;;;;5013128;28;20224;-83
2023/09/13 08:05:15;;;;;;;3.72;3.20;;;24.30;64.80;;;;;;5013530;28;20311;-83
2023/09/13 08:07:42;;;;;;;3.53;3.22;;;24.30;64.70;;;;;;5014001;28;20247;-84
2023/09/13 08:10:09;;;;;;;3.47;3.17;;;24.40;64.70;;;;;;5013536;28;20622;-84
2023/09/13 08:12:36;;;;;;;3.28;3.08;;;24.40;64.70;;;;;;5014198;28;20224;-83
2023/09/13 08:15:04;;;;;;;3.42;3.13;;;24.40;64.50;;;;;;5014018;28;20208;-83
2023/09/13 08:17:31;;;;;;;4.28;3.22;;;24.50;64.50;;;;;;5013781;28;20203;-83
2023/09/13 08:19:58;;;;;;;3.50;3.20;;;24.40;64.40;;;;;;5013223;28;20299;-83
2023/09/13 08:22:27;;;;;;;3.40;3.10;;;24.50;64.40;;;;;;5013642;28;20200;-83
2023/09/13 08:24:55;;;;;;;3.45;3.15;;;24.50;64.50;;;;;;5013362;28;20311;-83
2023/09/13 08:27:21;;;;;;;3.78;3.40;;;24.50;64.40;;;;;;5013522;28;20620;-83
2023/09/13 08:29:48;;;;;;;3.20;2.90;;;24.50;64.30;;;;;;5013207;28;20224;-83
2023/09/13 08:32:15;;;;;;;3.45;3.15;;;24.60;64.20;;;;;;5013546;28;20195;-83
2023/09/13 08:34:42;;;;;;;3.13;2.92;;;24.60;64.30;;;;;;5013051;28;20576;-84
2023/09/13 08:37:09;;;;;;;3.08;2.80;;;24.60;64.30;;;;;;5013132;28;20196;-84
2023/09/13 08:39:38;;;;;;;3.47;3.13;;;24.60;64.10;;;;;;5013733;28;20217;-84
2023/09/13 08:42:05;;;;;;;3.33;3.08;;;24.60;64.10;;;;;;5013986;28;20220;-84
2023/09/13 08:44:32;;;;;;;3.25;3.05;;;24.60;64.10;;;;;;5013058;28;20227;-84
2023/09/13 08:47:00;;;;;;;3.67;3.38;;;24.50;63.90;;;;;;5012965;28;20218;-84
2023/09/13 08:49:27;;;;;;;3.50;3.20;;;24.60;64.00;;;;;;5014831;28;20208;-83
2023/09/13 08:51:54;;;;;;;3.30;3.00;;;24.50;64.00;;;;;;5012999;28;20201;-84
2023/09/13 08:54:21;;;;;;;3.50;3.20;;;24.60;64.00;;;;;;5013395;28;20203;-84
2023/09/13 08:56:50;;;;;;;4.03;3.30;;;24.50;63.90;;;;;;5013133;28;20601;-83
2023/09/13 08:59:17;;;;;;;3.20;2.95;;;24.50;63.90;;;;;;5014367;28;20217;-83
2023/09/13 09:01:47;;;;;;;3.60;3.30;;;24.50;64.10;;;;;;5012997;28;20211;-84
2023/09/13 09:04:14;;;;;;;3.75;3.38;;;24.50;64.00;;;;;;5013081;28;20216;-84
2023/09/13 09:06:41;;;;;;;3.60;3.30;;;24.50;64.00;;;;;;5012858;28;20664;-83
2023/09/13 09:09:08;;;;;;;3.50;3.20;;;24.50;64.10;;;;;;5012956;28;20212;-84
2023/09/13 09:11:37;;;;;;;3.95;3.10;;;24.60;64.10;;;;;;5013200;28;20196;-84
2023/09/13 09:14:06;;;;;;;3.38;3.08;;;24.60;64.30;;;;;;5013432;28;20294;-84
2023/09/13 09:16:33;;;;;;;3.28;2.97;;;24.60;64.10;;;;;;5016688;28;20235;-84
2023/09/13 09:19:01;;;;;;;3.45;3.15;;;24.60;64.10;;;;;;5017323;28;20223;-84
2023/09/13 09:21:28;;;;;;;3.42;3.13;;;24.60;64.30;;;;;;5016772;28;20243;-84
2023/09/13 09:23:56;;;;;;;3.28;3.00;;;24.60;64.10;;;;;;5016603;28;20205;-84
2023/09/13 09:26:23;;;;;;;3.05;2.85;;;24.60;64.00;;;;;;5016727;28;20216;-84
2023/09/13 09:28:51;;;;;;;3.28;2.63;;;24.60;63.90;;;;;;5016614;28;20196;-84
2023/09/13 09:31:20;;;;;;;3.10;2.90;;;24.60;63.80;;;;;;5016686;28;20192;-84
2023/09/13 09:33:47;;;;;;;3.13;2.80;;;24.70;63.70;;;;;;5017015;28;20232;-84
2023/09/13 09:36:15;;;;;;;3.20;2.90;;;24.70;63.70;;;;;;5018087;28;20527;-84
2023/09/13 09:38:43;;;;;;;3.38;2.90;;;24.70;63.70;;;;;;5016648;28;20284;-84
2023/09/13 09:41:10;;;;;;;3.33;3.13;;;24.70;63.70;;;;;;5016671;28;20624;-83
2023/09/13 09:43:37;;;;;;;3.53;3.10;;;24.70;63.50;;;;;;5016859;28;20204;-83
2023/09/13 09:46:04;;;;;;;3.10;2.90;;;24.70;63.60;;;;;;5016260;28;20220;-83
2023/09/13 09:48:33;;;;;;;3.33;3.03;;;24.70;63.50;;;;;;5017018;28;20204;-83
2023/09/13 09:51:00;;;;;;;2.60;2.40;;;24.60;63.40;;;;;;5016009;28;20231;-82
2023/09/13 09:53:28;;;;;;;2.90;2.67;;;24.70;63.50;;;;;;5016027;28;20196;-83
2023/09/13 09:55:56;;;;;;;2.90;2.70;;;24.70;63.50;;;;;;5016058;28;20287;-83
2023/09/13 09:58:23;;;;;;;3.10;2.80;;;24.70;63.50;;;;;;5016240;28;20254;-83
2023/09/13 10:00:51;;;;;;;3.38;2.70;;;24.70;63.50;;;;;;5016743;28;20679;-83
2023/09/13 10:03:18;;;;;;;3.05;2.80;;;24.70;63.50;;;;;;5016247;28;20211;-83
2023/09/13 10:05:54;;;;;;;2.90;2.70;;;24.70;63.50;;;;;;5016930;28;20224;-83
2023/09/13 10:08:38;;;;;;;3.03;2.80;;;24.70;63.50;;;;;;5016025;28;20200;-83
2023/09/13 10:11:06;;;;;;;3.17;2.88;;;24.70;63.50;;;;;;5015555;28;20544;-83
2023/09/13 10:13:33;;;;;;;2.90;2.65;;;24.60;63.40;;;;;;5016566;28;20646;-83
2023/09/13 10:16:01;;;;;;;2.70;2.50;;;24.70;63.50;;;;;;5016287;28;20235;-83
2023/09/13 10:18:28;;;;;;;2.83;2.63;;;24.70;63.50;;;;;;5016360;28;20290;-83
2023/09/13 10:20:58;;;;;;;3.42;2.67;;;24.70;63.50;;;;;;5015507;28;20220;-83
2023/09/13 10:23:25;;;;;;;3.00;2.63;;;24.70;63.50;;;;;;5015434;28;20196;-83
2023/09/13 10:25:52;;;;;;;3.08;2.53;;;24.80;63.40;;;;;;5014771;28;20221;-83
2023/09/13 10:28:19;;;;;;;2.88;2.63;;;24.80;63.30;;;;;;5015653;28;20678;-83
2023/09/13 10:30:46;;;;;;;3.10;2.90;;;24.90;63.30;;;;;;5015436;28;20220;-83
2023/09/13 10:33:14;;;;;;;2.90;2.70;;;24.80;63.10;;;;;;5015303;28;20200;-83
2023/09/13 10:35:42;;;;;;;2.55;2.35;;;24.90;63.10;;;;;;5015379;28;20701;-83
2023/09/13 10:38:13;;;;;;;4.57;2.85;;;24.90;63.00;;;;;;5015872;28;20592;-83
2023/09/13 10:40:43;;;;;;;3.10;2.90;;;24.90;62.90;;;;;;5015843;28;20281;-83
2023/09/13 10:43:10;;;;;;;4.22;2.97;;;24.90;63.00;;;;;;5015745;28;20222;-83
2023/09/13 10:45:41;;;;;;;2.60;2.40;;;24.90;62.90;;;;;;5015388;28;20282;-83
2023/09/13 10:48:08;;;;;;;2.85;2.63;;;24.90;62.80;;;;;;5017380;28;20192;-83
2023/09/13 10:50:35;;;;;;;2.92;2.72;;;24.90;62.80;;;;;;5017691;28;20291;-83
2023/09/13 10:53:02;;;;;;;3.08;2.50;;;24.90;62.70;;;;;;5018110;28;20204;-83
2023/09/13 10:55:32;;;;;;;2.70;2.50;;;24.90;62.70;;;;;;5018106;28;20196;-83
2023/09/13 10:57:58;;;;;;;2.70;2.50;;;24.90;62.60;;;;;;5018691;28;20250;-83
2023/09/13 11:00:29;;;;;;;2.70;2.47;;;24.90;62.50;;;;;;5018851;28;20220;-84
2023/09/13 11:02:56;;;;;;;2.58;2.38;;;24.90;62.50;;;;;;5017365;28;20612;-83
2023/09/13 11:05:23;;;;;;;2.50;2.30;;;24.90;62.50;;;;;;5017133;28;20251;-83
2023/09/13 11:07:50;;;;;;;2.72;2.53;;;24.90;62.50;;;;;;5017236;28;20208;-83
2023/09/13 11:10:17;;;;;;;2.58;2.38;;;24.90;62.60;;;;;;5016786;28;20259;-83
2023/09/13 11:12:48;;;;;;;2.58;2.38;;;24.80;62.70;;;;;;5000891;28;20211;-83
2023/09/13 11:15:19;;;;;;;2.97;2.60;;;24.80;62.80;;;;;;5016080;28;20204;-83
2023/09/13 11:17:46;;;;;;;2.80;2.60;;;24.90;62.90;;;;;;5015323;28;20184;-83
2023/09/13 11:20:24;;;;;;;3.00;2.70;;;24.80;62.70;;;;;;5014841;28;20228;-83
2023/09/13 11:23:05;;;;;;;2.63;2.42;;;24.80;62.70;;;;;;5015629;28;20266;-83
2023/09/13 11:25:35;;;;;;;2.40;2.20;;;24.90;62.60;;;;;;5015651;28;20224;-83
2023/09/13 11:28:06;;;;;;;2.53;2.33;;;24.90;62.30;;;;;;5015285;28;20215;-83
2023/09/13 11:30:49;;;;;;;3.38;2.95;;;25.00;62.30;;;;;;5014872;28;20216;-83
2023/09/13 11:33:16;;;;;;;2.72;2.40;;;25.10;62.00;;;;;;5013507;28;20240;-83
2023/09/13 11:35:44;;;;;;;2.55;2.35;;;25.10;61.90;;;;;;5014621;28;20238;-83
2023/09/13 11:38:11;;;;;;;3.25;2.95;;;25.10;61.80;;;;;;5014307;28;20196;-83
2023/09/13 11:40:38;;;;;;;3.22;2.88;;;25.10;61.60;;;;;;5015669;28;20216;-83
2023/09/13 11:43:07;;;;;;;2.63;2.42;;;25.20;61.60;;;;;;5014319;28;20196;-83
2023/09/13 11:45:35;;;;;;;2.80;2.60;;;25.20;61.40;;;;;;5014739;28;20609;-83
2023/09/13 11:48:04;;;;;;;2.85;2.55;;;25.30;61.40;;;;;;5014335;28;20287;-83
2023/09/13 11:50:42;;;;;;;2.72;2.53;;;25.30;61.20;;;;;;5014524;28;20252;-83
2023/09/13 11:53:12;;;;;;;2.60;2.40;;;25.30;61.00;;;;;;5013880;28;20192;-83
2023/09/13 11:55:40;;;;;;;3.35;2.60;;;25.40;60.90;;;;;;5014119;28;20640;-84
2023/09/13 11:58:11;;;;;;;2.78;2.58;;;25.40;60.70;;;;;;5013822;28;20715;-84
2023/09/13 12:00:40;;;;;;;2.70;2.50;;;25.40;60.60;;;;;;4998141;28;20228;-84
2023/09/13 12:03:08;;;;;;;2.83;2.63;;;25.40;60.50;;;;;;5013564;28;20266;-84
2023/09/13 12:05:38;;;;;;;2.75;2.55;;;25.50;60.40;;;;;;5013639;28;20216;-84
2023/09/13 12:08:18;;;;;;;2.60;2.40;;;25.50;60.40;;;;;;4997544;28;20200;-84
2023/09/13 12:10:45;;;;;;;3.35;3.05;;;25.50;60.20;;;;;;5002311;28;20247;-84
2023/09/13 12:13:14;;;;;;;2.90;2.70;;;25.60;60.10;;;;;;5012592;28;20204;-84
2023/09/13 12:15:59;;;;;;;4.32;3.00;;;25.60;60.10;;;;;;5013567;28;20283;-83
2023/09/13 12:18:26;;;;;;;3.85;2.80;;;25.50;60.20;;;;;;4997763;28;20192;-84
2023/09/13 12:20:56;;;;;;;3.67;3.38;;;25.50;60.40;;;;;;5013350;28;20227;-84
2023/09/13 12:23:23;;;;;;;2.90;2.70;;;25.50;61.00;;;;;;5015636;28;20546;-84
2023/09/13 12:25:51;;;;;;;3.95;3.30;;;25.50;59.80;;;;;;5013734;28;20216;-84
2023/09/13 12:28:27;;;;;;;4.55;3.20;;;25.40;59.70;;;;;;5013585;28;20685;-84
2023/09/13 12:30:55;;;;;;;6.15;3.28;;;25.40;59.30;;;;;;5013845;28;20678;-84
2023/09/13 12:33:23;;;;;;;3.47;3.17;;;25.40;59.40;;;;;;5013199;28;20199;-84
2023/09/13 12:35:50;;;;;;;3.80;3.20;;;25.40;59.50;;;;;;5013751;28;20287;-84
2023/09/13 12:38:19;;;;;;;3.50;3.20;;;25.40;59.20;;;;;;5013379;28;20216;-84
2023/09/13 12:40:52;;;;;;;3.88;3.55;;;25.40;59.20;;;;;;5014592;28;20243;-84
2023/09/13 12:43:20;;;;;;;4.60;3.20;;;25.40;59.20;;;;;;5013607;28;20212;-84
2023/09/13 12:45:49;;;;;;;3.55;3.15;;;25.40;59.30;;;;;;5013319;28;20224;-84
2023/09/13 12:48:15;;;;;;;4.03;3.20;;;25.40;59.80;;;;;;5013436;28;20257;-84
2023/09/13 12:50:43;;;;;;;4.13;3.13;;;25.50;60.10;;;;;;5012860;28;20741;-84
2023/09/13 12:53:10;;;;;;;3.50;3.20;;;25.50;59.70;;;;;;5013876;28;20200;-83